Bradenton, FL (34201)

9:01 PM EDT on May 03, 2015 (GMT -0400)
THE MEADOWS | Change Station
CLOSE
Current Station
Personal Weather Station
Location: Sarasota, FL
Elevation: 39 ft
Nearby Weather Stations

Elev 39 ft 27.36 °N, 82.47 °W | Updated 6 minutes ago

Partly Cloudy
Partly Cloudy
76.4 °F
Feels Like 78 °F
N
2.0
Wind Variable Wind from SSW
Gusts 6.0 mph

Today
High -- | Low -- °F
--% Chance of Precip.
Yesterday
High -- | Low -- °F
Precip. -- in
6:49 AM 8:04 PM
Full, 100% visible
Pressure 30.09 in
Visibility 10.0 miles
Clouds Few 7000 ft
Heat Index 78 °F
Dew Point 56 °F
Humidity 50%
Rainfall 0.00 in
Snow Depth Not available.
UV 0 out of 12
Pollen 6.30 out of 12
Air Quality Not available.
Flu Activity Local Activity
METAR KSRQ 040053Z 11011KT 10SM FEW070 24/11 A3009 RMK AO2 SLP190 T02440111

More Conditions Fewer Conditions

Pressure 30.09 in
Visibility 10.0 miles
Clouds Few 7000 ft
Heat Index 78 °F
Dew Point 56 °F
Humidity 50%
Rainfall 0.00 in
Snow Depth Not available.
UV 0 out of 12
Pollen 6.30 out of 12
Air Quality Not available.
Flu Activity Local Activity
METAR KSRQ 040053Z 11011KT 10SM FEW070 24/11 A3009 RMK AO2 SLP190 T02440111

More Conditions Fewer Conditions

10-Day Weather Forecast

Almanac

Astronomy

May. 03, 2015 Rise Set
Actual Time 6:49 AM EDT 8:04 PM EDT
Civil Twilight 6:24 AM EDT 8:29 PM EDT
Nautical Twilight 5:55 AM EDT 8:58 PM EDT
Astronomical Twilight 5:25 AM EDT 9:29 PM EDT
Moon 7:50 PM EDT (5/3) 6:34 AM EDT (5/3)
Length of Visible Light 14h 04m
Length of Day
13h 14m
Tomorrow will be 1m 20s longer.
Full, 100% of the Moon is Illuminated
Today
Full
May 3
Full
May 11
Last Quarter
May 18
New
May 25
First Quarter

Today's Extremes

State Highs State Lows

Community

WunderPhotos

Upload Photos

1,818,446 photos uploaded!

Nearby

Snow Depth

Station Depth Elevation
No new snow has been reported.

Earthquake Activity

City Distance Mag. Time & Date
No recent earthquake activity has been reported nearby.
Minimum magnitude displayed is 2.5.

Coastal Water Temperatures

Place Temperature
Clearwater Beach, FL 77.0 °F
Port Manatee, FL 77.0 °F
St Petersburg, FL 80.1 °F
Old Port Tampa, FL 78.1 °F
McKay Bay Entrance, FL 80.1 °F

Nearby Weather Stations